Latest Weather Observations for Esperance

IDW60801

Issued at 6:02 pm WST Thursday 5 March 2015 (issued every 30 minutes, with the page automatically refreshed every 10 minutes)

About weather observations | Map of weather stations | Latest weather observations for WA | Other Formats
Station Details ID: 009789 Name: ESPERANCE Lat: -33.83 Lon: 121.89 Height: 25.0 m
Data from the previous 72 hours. | See also: Recent months at Esperance
Date/Time
WST
Temp
°C
App
Temp
°C
Dew
Point
Rel
Hum
%
Delta-T
°C
Wind Press
QNH
hPa
Press
MSL
hPa
Rain
since 9 am
mm
Dir
 
Spd
km/h
Gust
km/h
Spd
kts
Gust
kts
05/05:30pm 20.2 15.9 13.3 64 3.9 SE 28 41 15 22 1025.2 1025.1 0.0
05/05:00pm 20.7 16.5 13.5 63 4.1 SE 28 43 15 23 1025.0 1024.9 0.0
05/04:30pm 20.9 16.3 13.4 62 4.3 SE 30 41 16 22 1025.2 1025.1 0.0
05/04:00pm 20.9 15.8 13.2 61 4.4 SE 32 41 17 22 1025.1 1025.0 0.0
05/03:30pm 21.4 16.4 13.4 60 4.6 SSE 32 41 17 22 1025.2 1025.1 0.0
05/03:00pm 21.1 15.8 13.0 60 4.6 SSE 33 46 18 25 1025.2 1025.1 0.0
05/02:30pm 21.1 14.9 12.8 59 4.7 SSE 37 46 20 25 1025.5 1025.4 0.0
05/02:00pm 21.5 15.8 12.9 58 4.9 SSE 35 43 19 23 1025.7 1025.6 0.0
05/01:30pm 22.0 16.7 13.1 57 5.1 SSE 33 41 18 22 1026.1 1026.0 0.0
05/01:00pm 21.3 16.1 12.8 58 4.8 SE 32 44 17 24 1026.4 1026.3 0.0
05/12:30pm 21.1 16.3 13.0 60 4.6 SSE 30 39 16 21 1026.5 1026.4 0.0
05/12:00pm 21.7 17.2 12.5 56 5.2 SSE 28 39 15 21 1026.8 1026.7 0.0
05/11:30am 21.6 17.0 12.3 55 5.3 SSE 28 35 15 19 1027.2 1027.1 0.0
05/10:30am 21.9 18.2 11.4 51 5.8 SSE 22 28 12 15 1027.8 1027.7 0.0
05/10:00am 21.7 18.8 10.9 50 5.9 SE 17 24 9 13 1028.1 1028.0 0.0
05/09:30am 20.7 18.2 11.0 53 5.3 SE 15 22 8 12 1028.3 1028.2 0.0
05/09:00am 20.8 18.6 10.7 52 5.5 E 13 19 7 10 1028.4 1028.3 0.0
05/08:30am 19.9 18.0 11.9 60 4.4 E 13 17 7 9 1028.5 1028.4 0.0
05/08:00am 19.1 17.8 12.6 66 3.6 ESE 11 17 6 9 1028.5 1028.4 0.0
05/07:30am 18.0 17.6 13.0 72 2.8 E 7 11 4 6 1028.3 1028.2 0.0
05/07:00am 17.0 17.0 13.6 80 1.9 ENE 6 9 3 5 1028.1 1028.0 0.0
05/06:30am 16.4 16.2 13.5 83 1.6 NE 7 9 4 5 1027.9 1027.8 0.0
05/05:30am 16.4 16.2 13.5 83 1.6 E 7 9 4 5 1027.1 1027.0 0.0
05/05:00am 15.7 15.4 13.4 86 1.3 ENE 7 7 4 4 1026.8 1026.7 0.0
05/04:30am 16.0 15.3 13.3 84 1.5 E 9 11 5 6 1026.5 1026.4 0.0
05/04:00am 15.2 14.5 13.2 88 1.1 NE 9 11 5 6 1026.6 1026.5 0.0
05/03:30am 15.3 14.6 13.3 88 1.1 E 9 13 5 7 1026.5 1026.4 0.0
05/03:00am 15.4 14.7 13.2 87 1.2 ENE 9 13 5 7 1026.5 1026.4 0.0
05/02:30am 16.8 15.9 13.6 81 1.8 ENE 11 17 6 9 1026.4 1026.3 0.0
05/02:00am 18.3 16.4 14.1 76 2.4 ESE 17 24 9 13 1026.3 1026.2 0.0
05/01:30am 17.9 16.2 13.7 76 2.4 SE 15 20 8 11 1026.4 1026.3 0.0
05/01:00am 17.2 16.0 14.0 81 1.8 ESE 13 17 7 9 1026.8 1026.7 0.0
05/12:30am 16.6 15.8 13.0 79 2.0 E 9 15 5 8 1027.1 1027.0 0.0
05/12:00am 16.6 15.7 12.6 77 2.2 ENE 9 15 5 8 1027.3 1027.2 0.0
 
Date/Time
WST
Temp
°C
App
Temp
°C
Dew
Point
Rel
Hum
%
Delta-T
°C
Wind Press
QNH
hPa
Press
MSL
hPa
Rain
since 9 am
mm
Dir
 
Spd
km/h
Gust
km/h
Spd
kts
Gust
kts
04/11:30pm 18.7 15.9 12.6 67 3.4 SE 19 26 10 14 1027.2 1027.1 0.0
04/11:00pm 18.7 16.0 12.8 68 3.3 ESE 19 24 10 13 1027.1 1027.0 0.0
04/10:30pm 18.7 15.7 12.0 65 3.7 SE 19 24 10 13 1027.4 1027.3 0.0
04/10:00pm 18.8 15.5 11.7 63 3.9 SE 20 28 11 15 1027.5 1027.4 0.0
04/09:30pm 18.8 16.2 11.9 64 3.8 ESE 17 24 9 13 1027.8 1027.7 0.0
04/09:00pm 18.6 16.9 13.5 72 2.9 ESE 15 22 8 12 1027.7 1027.6 0.0
04/08:30pm 18.7 16.5 13.2 70 3.1 ESE 17 22 9 12 1027.6 1027.5 0.0
04/08:00pm 18.7 16.4 13.0 69 3.2 SE 17 26 9 14 1027.3 1027.2 0.0
04/07:30pm 19.0 16.2 12.7 67 3.5 SE 19 24 10 13 1027.0 1026.9 0.0
04/07:00pm 18.9 15.9 12.4 66 3.6 SE 20 28 11 15 1026.7 1026.6 0.0
04/06:30pm 18.9 15.9 12.0 64 3.8 SE 19 28 10 15 1026.6 1026.5 0.0
04/05:30pm 19.7 15.8 12.1 61 4.2 SE 24 32 13 17 1025.9 1025.8 0.0
04/05:00pm 20.4 16.1 12.1 59 4.6 SE 26 35 14 19 1025.8 1025.7 0.0
04/04:30pm 20.6 16.9 12.8 61 4.4 SSE 24 32 13 17 1025.4 1025.3 0.0
04/04:00pm 20.8 16.9 12.2 58 4.8 SSE 24 32 13 17 1025.1 1025.0 0.0
04/03:30pm 21.0 16.7 12.2 57 4.9 SSE 26 35 14 19 1025.1 1025.0 0.0
04/03:00pm 20.8 16.0 11.8 56 5.0 SSE 28 35 15 19 1024.9 1024.8 0.0
04/02:30pm 21.5 17.1 11.8 54 5.4 SSE 26 32 14 17 1025.0 1024.9 0.0
04/02:00pm 21.2 17.4 12.3 57 5.0 SSE 24 32 13 17 1025.0 1024.9 0.0
04/01:30pm 21.4 17.4 11.9 54 5.3 SSE 24 30 13 16 1025.0 1024.9 0.0
04/01:00pm 21.3 17.8 12.2 56 5.1 SSE 22 28 12 15 1025.4 1025.3 0.0
04/12:30pm 21.2 18.2 12.5 57 4.9 SSE 20 32 11 17 1025.6 1025.5 0.0
04/12:00pm 21.5 18.1 12.4 56 5.1 SE 22 30 12 16 1025.7 1025.6 0.0
04/11:30am 21.3 18.0 12.8 58 4.8 SSE 22 30 12 16 1026.0 1025.9 0.0
04/11:00am 20.7 17.7 12.7 60 4.5 SSE 20 30 11 16 1026.3 1026.2 0.0
04/10:30am 21.0 18.2 13.3 61 4.4 SSE 20 26 11 14 1026.5 1026.4 0.0
04/10:00am 19.6 17.9 13.6 68 3.4 SSE 15 20 8 11 1026.7 1026.6 0.0
04/09:30am 20.0 17.9 13.7 67 3.6 SSE 17 20 9 11 1026.5 1026.4 0.0
04/09:00am 19.9 18.8 14.4 70 3.2 SSE 13 19 7 10 1026.3 1026.2 0.0
04/08:30am 18.7 18.5 14.7 77 2.3 SSW 9 20 5 11 1026.4 1026.3 0.0
04/08:00am 19.2 19.6 13.6 70 3.2 SSW 4 7 2 4 1025.8 1025.7 0.0
04/07:30am 18.7 20.0 14.0 74 2.7 CALM 0 0 0 0 1025.6 1025.5 0.0
04/07:00am 18.0 18.0 14.1 78 2.2 N 7 9 4 5 1025.3 1025.2 0.0
04/06:30am 17.8 19.0 13.7 77 2.3 CALM 0 0 0 0 1024.9 1024.8 0.0
04/06:00am 17.5 18.8 14.2 81 1.9 CALM 0 0 0 0 1024.6 1024.5 0.0
04/05:30am 17.3 18.5 13.9 80 1.9 CALM 0 0 0 0 1024.4 1024.3 0.0
04/05:00am 17.1 18.3 13.7 80 1.9 CALM 0 0 0 0 1023.8 1023.7 0.0
04/04:30am 17.0 16.9 13.8 81 1.8 NE 7 9 4 5 1023.5 1023.4 0.0
04/04:00am 17.0 17.2 14.2 83 1.6 NNE 6 7 3 4 1023.3 1023.2 0.0
04/03:30am 17.4 17.5 13.9 80 2.0 NNE 6 7 3 4 1023.4 1023.3 0.0
04/03:00am 17.4 18.4 13.1 76 2.4 CALM 0 0 0 0 1023.2 1023.1 0.0
04/02:30am 17.4 18.5 13.5 78 2.2 CALM 0 0 0 0 1023.3 1023.2 0.0
04/02:00am 17.7 17.6 13.2 75 2.5 ENE 6 7 3 4 1023.2 1023.1 0.0
04/01:30am 18.0 17.9 13.4 74 2.6 ESE 6 9 3 5 1023.3 1023.2 0.0
04/01:00am 18.1 18.2 14.4 79 2.1 ESE 7 9 4 5 1023.6 1023.5 0.0
04/12:30am 18.4 18.6 14.8 79 2.1 ESE 7 9 4 5 1023.7 1023.6 0.0
04/12:00am 17.8 18.1 14.9 83 1.7 SE 7 7 4 4 1023.8 1023.7 0.0
 
Date/Time
WST
Temp
°C
App
Temp
°C
Dew
Point
Rel
Hum
%
Delta-T
°C
Wind Press
QNH
hPa
Press
MSL
hPa
Rain
since 9 am
mm
Dir
 
Spd
km/h
Gust
km/h
Spd
kts
Gust
kts
03/11:30pm 17.9 18.2 15.0 83 1.7 E 7 9 4 5 1023.7 1023.6 0.0
03/11:00pm 18.1 18.5 15.2 83 1.7 ESE 7 11 4 6 1023.7 1023.6 0.0
03/10:30pm 19.1 19.3 15.7 80 2.0 ESE 9 15 5 8 1023.8 1023.7 0.0
03/10:00pm 19.4 18.4 15.7 79 2.2 SE 15 20 8 11 1023.9 1023.8 0.0
03/09:30pm 19.4 18.0 15.5 78 2.3 SE 17 26 9 14 1023.8 1023.7 0.0
03/09:00pm 19.3 17.3 15.6 79 2.2 SE 20 30 11 16 1024.0 1023.9 0.0
03/08:30pm 19.5 17.5 15.6 78 2.3 SE 20 32 11 17 1023.8 1023.7 0.0
03/08:00pm 19.5 17.6 15.2 76 2.5 SE 19 26 10 14 1023.6 1023.5 0.0
03/07:30pm 19.6 17.1 15.2 76 2.6 SE 22 28 12 15 1023.1 1023.0 0.0
03/07:00pm 19.6 17.8 15.5 77 2.4 SE 19 26 10 14 1022.7 1022.6 0.0
03/06:30pm 19.7 17.0 15.6 77 2.4 SSE 24 33 13 18 1022.4 1022.3 0.0
03/06:00pm 20.1 17.3 15.3 74 2.8 SSE 24 32 13 17 1022.1 1022.0 0.0
03/05:30pm 20.3 17.4 15.0 71 3.1 SSE 24 32 13 17 1022.1 1022.0 0.0
03/05:00pm 20.7 17.8 15.1 70 3.3 SSE 24 32 13 17 1021.9 1021.8 0.0
03/04:30pm 21.0 17.7 15.1 69 3.5 SSE 26 32 14 17 1021.9 1021.8 0.0
03/04:00pm 21.4 18.1 14.9 66 3.8 SSE 26 35 14 19 1021.9 1021.8 0.0
03/03:30pm 21.2 18.2 14.9 67 3.7 SSE 24 35 13 19 1021.7 1021.6 0.0
03/03:00pm 21.7 18.0 14.9 65 4.0 SSE 28 37 15 20 1021.7 1021.6 0.0
03/02:30pm 22.2 18.8 14.7 62 4.4 SSE 26 35 14 19 1021.8 1021.7 0.0
03/02:00pm 21.6 17.6 14.2 62 4.3 SSE 28 35 15 19 1022.0 1021.9 0.0
03/01:30pm 22.1 18.3 14.6 62 4.4 SSE 28 33 15 18 1022.1 1022.0 0.0
03/01:00pm 21.7 17.9 14.7 64 4.1 SSE 28 35 15 19 1022.2 1022.1 0.0
03/12:30pm 22.1 18.4 14.0 60 4.7 SSE 26 32 14 17 1022.3 1022.2 0.0
03/12:00pm 22.4 19.0 13.8 58 5.0 SSE 24 30 13 16 1022.3 1022.2 0.0
03/11:30am 22.6 19.1 13.4 56 5.3 SSE 24 30 13 16 1022.5 1022.4 0.0
03/11:00am 22.2 19.0 14.3 61 4.6 SSE 24 30 13 16 1022.8 1022.7 0.0
03/10:30am 22.5 19.9 13.7 57 5.1 SSE 20 24 11 13 1023.0 1022.9 0.0
03/10:00am 22.3 19.9 12.6 54 5.5 SSE 17 20 9 11 1023.0 1022.9 0.0
03/09:30am 21.7 19.3 12.7 56 5.1 SSE 17 20 9 11 1023.0 1022.9 0.0
03/09:00am 21.6 19.6 12.8 57 5.0 SE 15 19 8 10 1023.0 1022.9 0.4
03/08:30am 21.4 20.3 13.2 59 4.7 SE 11 17 6 9 1022.9 1022.8 0.2
03/08:00am 20.9 20.3 13.6 63 4.2 E 9 13 5 7 1022.9 1022.8 0.2
03/07:30am 19.9 19.3 13.4 66 3.7 ENE 9 13 5 7 1022.9 1022.8 0.2
03/07:00am 17.8 19.0 13.7 77 2.3 CALM 0 0 0 0 1022.9 1022.8 0.2
03/06:30am 17.1 18.2 13.5 79 2.0 CALM 0 0 0 0 1022.7 1022.6 0.2
03/06:00am 16.9 18.0 13.5 80 1.9 CALM 0 0 0 0 1022.4 1022.3 0.2
03/05:30am 17.0 17.4 13.6 80 1.9 NNE 4 6 2 3 1022.1 1022.0 0.2
03/05:00am 17.0 18.1 13.6 80 1.9 CALM 0 0 0 0 1021.7 1021.6 0.2
03/04:30am 17.1 18.1 13.2 78 2.2 CALM 0 0 0 0 1021.5 1021.4 0.2
03/04:00am 17.0 18.1 13.4 79 2.0 CALM 0 0 0 0 1021.4 1021.3 0.2
03/03:30am 16.8 17.2 13.6 81 1.8 NNW 4 7 2 4 1021.3 1021.2 0.2
03/03:00am 16.9 16.6 13.3 79 2.0 NNE 7 9 4 5 1021.2 1021.1 0.2
03/02:30am 16.7 16.5 13.5 81 1.8 NNE 7 11 4 6 1021.0 1020.9 0.2
03/02:00am 16.8 16.5 13.4 80 1.9 NE 7 9 4 5 1020.9 1020.8 0.2
03/01:30am 17.0 16.7 13.2 78 2.1 ENE 7 11 4 6 1021.0 1020.9 0.2
03/01:00am 16.9 16.2 13.3 79 2.0 NE 9 13 5 7 1021.3 1021.2 0.2
03/12:30am 17.2 16.5 13.3 78 2.2 ENE 9 13 5 7 1021.2 1021.1 0.2
03/12:00am 17.0 16.7 13.4 79 2.0 ENE 7 11 4 6 1021.3 1021.2 0.2
 
Date/Time
WST
Temp
°C
App
Temp
°C
Dew
Point
Rel
Hum
%
Delta-T
°C
Wind Press
QNH
hPa
Press
MSL
hPa
Rain
since 9 am
mm
Dir
 
Spd
km/h
Gust
km/h
Spd
kts
Gust
kts
02/11:30pm 17.0 16.7 13.4 79 2.0 ENE 7 9 4 5 1021.2 1021.1 0.2
02/11:00pm 17.5 16.9 13.6 78 2.2 E 9 17 5 9 1021.2 1021.1 0.2
02/10:30pm 18.1 17.3 14.1 77 2.3 E 11 19 6 10 1021.2 1021.1 0.2
02/10:00pm 18.8 17.1 14.8 77 2.3 ESE 17 22 9 12 1021.1 1021.0 0.2
02/09:30pm 18.8 17.2 16.1 84 1.6 ESE 19 28 10 15 1021.0 1020.9 0.2
02/09:11pm 18.9 16.7 16.0 83 1.7 ESE 22 28 12 15 1020.8 1020.7 0.2
02/09:00pm 18.9 17.1 16.0 83 1.7 SE 20 28 11 15 1020.8 1020.7 0.2
02/08:30pm 18.8 17.0 15.9 83 1.7 SE 20 30 11 16 1020.4 1020.3 0.2
02/08:00pm 18.7 16.4 15.6 82 1.8 SE 22 32 12 17 1019.8 1019.7 0.2
02/07:30pm 18.9 15.8 15.5 80 2.0 SE 26 35 14 19 1019.0 1018.9 0.2
02/07:00pm 19.2 15.9 14.9 76 2.5 SE 26 37 14 20 1018.4 1018.3 0.2
02/06:30pm 19.7 15.7 13.0 65 3.8 SE 26 35 14 19 1018.0 1017.9 0.2

Other Formats:

Comma delimited format used in spreadsheet applications
http://www.bom.gov.au/fwo/IDW60801/IDW60801.94638.axf

JavaScript Object Notation format (JSON) in row-major order
http://www.bom.gov.au/fwo/IDW60801/IDW60801.94638.json